Time;durP1;ratioP1;P1;durP2;ratioP2;P2;SDS_P1;SDS_P2;PMS_P1;PMS_P2;Temp;Humidity;BMP_temperature;BMP_pressure;BME280_temperature;BME280_humidity;BME280_pressure;Samples;Min_cycle;Max_cycle;Signal;HPM_P1;HPM_P2
2022/02/21 00:02:21;;;;;;;0.95;0.77;;;;;;;8.11;89.76;98969.47;5037686;28;20064;-72
2022/02/21 00:04:46;;;;;;;0.90;0.70;;;;;;;8.09;90.23;98965.50;5039802;28;20029;-71
2022/02/21 00:07:12;;;;;;;1.33;0.90;;;;;;;8.09;90.04;98936.16;5038230;28;20032;-72
2022/02/21 00:09:37;;;;;;;0.73;0.70;;;;;;;8.08;90.35;98926.56;5037961;28;21813;-71
2022/02/21 00:12:03;;;;;;;2.70;0.85;;;;;;;8.08;90.40;98935.34;5038020;28;20592;-72
2022/02/21 00:14:29;;;;;;;1.13;0.98;;;;;;;8.09;90.26;98923.63;5039491;28;20087;-72
2022/02/21 00:16:54;;;;;;;1.00;0.90;;;;;;;8.10;89.90;98903.06;5037494;28;20037;-72
2022/02/21 00:19:21;;;;;;;2.85;1.00;;;;;;;8.09;90.15;98898.81;5037471;28;20029;-72
2022/02/21 00:21:47;;;;;;;1.23;0.98;;;;;;;8.10;89.76;98895.06;5038266;28;20020;-72
2022/02/21 00:24:12;;;;;;;0.90;0.70;;;;;;;8.09;90.40;98896.16;5041362;28;20072;-71
2022/02/21 00:26:38;;;;;;;0.80;0.68;;;;;;;8.09;90.91;98880.13;5039257;28;20032;-72
2022/02/21 00:29:04;;;;;;;1.17;0.73;;;;;;;8.09;90.26;98867.59;5038926;28;20029;-72
2022/02/21 00:31:29;;;;;;;1.33;0.70;;;;;;;8.11;90.42;98865.44;5039525;28;20024;-72
2022/02/21 00:33:55;;;;;;;2.08;0.90;;;;;;;8.11;90.50;98857.44;5041568;28;20094;-72
2022/02/21 00:36:20;;;;;;;1.52;0.80;;;;;;;8.10;90.88;98842.53;5047113;28;20047;-72
2022/02/21 00:38:46;;;;;;;1.38;0.70;;;;;;;8.09;91.17;98840.94;5043543;28;20032;-72
2022/02/21 00:41:11;;;;;;;1.45;1.13;;;;;;;8.10;91.41;98831.84;5042117;28;20109;-71
2022/02/21 00:43:36;;;;;;;0.77;0.77;;;;;;;8.10;91.25;98831.06;5039311;28;20471;-72
2022/02/21 00:46:02;;;;;;;0.65;0.65;;;;;;;8.10;90.84;98826.50;5042465;28;20665;-72
2022/02/21 00:48:28;;;;;;;1.55;0.88;;;;;;;8.11;91.15;98828.09;5042712;28;20029;-72
2022/02/21 00:50:54;;;;;;;0.77;0.77;;;;;;;8.14;90.93;98806.22;5037795;28;20017;-72
2022/02/21 00:53:19;;;;;;;2.45;0.80;;;;;;;8.16;91.01;98806.72;5036648;28;20507;-71
2022/02/21 00:55:45;;;;;;;0.77;0.70;;;;;;;8.17;91.12;98802.97;5042738;28;20029;-72
2022/02/21 00:58:10;;;;;;;0.80;0.80;;;;;;;8.18;90.73;98783.22;5037666;28;20025;-72
2022/02/21 01:00:37;;;;;;;1.48;0.85;;;;;;;8.18;91.06;98774.44;5040717;28;20035;-72
2022/02/21 01:03:03;;;;;;;1.15;0.90;;;;;;;8.19;91.14;98770.69;5041855;28;20032;-72
2022/02/21 01:05:29;;;;;;;1.80;1.20;;;;;;;8.18;91.39;98767.22;5043008;28;20025;-71
2022/02/21 01:07:55;;;;;;;0.70;0.70;;;;;;;8.19;91.08;98766.13;5042129;28;20057;-72
2022/02/21 01:10:20;;;;;;;3.45;0.90;;;;;;;8.22;90.97;98748.78;5040083;28;20059;-72
2022/02/21 01:12:46;;;;;;;0.98;0.80;;;;;;;8.23;91.31;98750.34;5040527;28;20549;-72
2022/02/21 01:15:13;;;;;;;1.63;0.90;;;;;;;8.24;91.01;98735.16;5041872;28;20029;-72
2022/02/21 01:17:40;;;;;;;2.42;0.90;;;;;;;8.24;91.11;98722.59;5038431;28;20048;-71
2022/02/21 01:20:07;;;;;;;1.77;0.95;;;;;;;8.25;90.93;98713.53;5038277;28;20063;-72
2022/02/21 01:22:33;;;;;;;1.77;0.90;;;;;;;8.25;91.26;98713.53;5043119;28;20052;-72
2022/02/21 01:24:59;;;;;;;1.45;0.70;;;;;;;8.27;91.04;98705.25;5041515;28;20083;-72
2022/02/21 01:27:25;;;;;;;1.48;1.15;;;;;;;8.29;91.05;98703.91;5040322;28;20055;-71
2022/02/21 01:29:51;;;;;;;2.08;0.93;;;;;;;8.30;91.02;98708.16;5040062;28;20091;-71
2022/02/21 01:32:17;;;;;;;1.63;0.90;;;;;;;8.31;90.79;98682.28;5040888;28;20021;-72
2022/02/21 01:34:43;;;;;;;2.47;0.82;;;;;;;8.33;90.94;98677.44;5039410;28;20017;-72
2022/02/21 01:37:08;;;;;;;0.95;0.70;;;;;;;8.34;90.75;98674.53;5040000;28;20031;-71
2022/02/21 01:39:34;;;;;;;1.83;0.90;;;;;;;8.36;90.35;98674.25;5040269;28;20016;-72
2022/02/21 01:41:59;;;;;;;1.65;0.80;;;;;;;8.38;90.10;98674.75;5039044;28;20029;-71
2022/02/21 01:44:40;;;;;;;1.88;0.60;;;;;;;8.35;89.95;98668.09;5040341;28;20024;-72
2022/02/21 01:47:07;;;;;;;1.48;0.60;;;;;;;8.40;89.56;98659.25;5037631;28;20534;-72
2022/02/21 01:49:33;;;;;;;1.65;0.70;;;;;;;8.42;89.66;98643.72;5041490;28;20025;-72
2022/02/21 01:51:59;;;;;;;1.65;0.75;;;;;;;8.42;89.54;98635.72;5036775;28;20025;-71
2022/02/21 01:54:24;;;;;;;0.88;0.75;;;;;;;8.44;89.45;98620.25;5037506;28;20028;-72
2022/02/21 01:56:50;;;;;;;1.58;0.80;;;;;;;8.44;89.42;98615.72;5039560;28;20051;-71
2022/02/21 01:59:16;;;;;;;2.15;0.80;;;;;;;8.44;89.29;98597.03;5040661;28;20017;-71
2022/02/21 02:01:41;;;;;;;1.13;0.63;;;;;;;8.44;89.18;98599.69;5041857;28;20043;-71
2022/02/21 02:04:07;;;;;;;0.90;0.70;;;;;;;8.47;88.93;98584.97;5041834;28;20025;-71
2022/02/21 02:06:33;;;;;;;2.40;0.60;;;;;;;8.47;88.76;98576.97;5037381;28;20403;-72
2022/02/21 02:08:58;;;;;;;1.25;0.50;;;;;;;8.48;88.60;98570.56;5037617;28;20029;-72
2022/02/21 02:11:26;;;;;;;2.42;0.77;;;;;;;8.48;88.68;98543.88;5037081;28;20550;-72
2022/02/21 02:13:52;;;;;;;0.80;0.80;;;;;;;8.49;88.57;98537.44;5038531;28;20048;-72
2022/02/21 02:16:21;;;;;;;2.33;0.65;;;;;;;8.50;88.78;98535.56;5038906;28;20135;-72
2022/02/21 02:18:47;;;;;;;0.82;0.52;;;;;;;8.52;88.38;98531.53;5040679;28;20040;-71
2022/02/21 02:21:21;;;;;;;3.97;0.80;;;;;;;8.54;87.99;98521.34;5039314;28;20060;-72
2022/02/21 02:23:51;;;;;;;1.23;0.60;;;;;;;8.56;87.86;98519.19;5036389;28;20705;-72
2022/02/21 02:26:17;;;;;;;1.83;0.77;;;;;;;8.58;88.00;98506.34;5040570;28;20033;-72
2022/02/21 02:28:45;;;;;;;1.15;0.60;;;;;;;8.60;87.18;98509.50;5037175;28;20036;-72
2022/02/21 02:31:11;;;;;;;1.52;0.68;;;;;;;8.63;87.40;98486.81;5045123;28;20074;-72
2022/02/21 02:33:37;;;;;;;1.55;1.00;;;;;;;8.66;86.97;98486.22;5035229;28;20025;-72
2022/02/21 02:36:05;;;;;;;2.47;0.50;;;;;;;8.67;86.79;98485.94;5039312;28;20636;-72
2022/02/21 02:38:30;;;;;;;1.45;0.70;;;;;;;8.66;87.05;98479.00;5036689;28;20033;-72
2022/02/21 02:40:56;;;;;;;0.40;0.40;;;;;;;8.68;86.76;98479.50;5038878;28;20044;-72
2022/02/21 02:43:22;;;;;;;0.73;0.60;;;;;;;8.70;86.83;98474.69;5036877;28;20044;-72
2022/02/21 02:45:48;;;;;;;1.63;0.80;;;;;;;8.72;86.30;98471.72;5040575;28;20033;-72
2022/02/21 02:48:13;;;;;;;2.70;0.70;;;;;;;8.72;86.41;98464.50;5038123;28;20482;-72
2022/02/21 02:50:39;;;;;;;0.77;0.60;;;;;;;8.72;86.07;98453.03;5037608;28;20109;-72
2022/02/21 02:53:07;;;;;;;1.77;0.60;;;;;;;8.73;85.78;98460.75;5040858;28;20025;-72
2022/02/21 02:55:33;;;;;;;0.75;0.55;;;;;;;8.75;85.90;98458.56;5043430;28;20465;-72
2022/02/21 02:57:58;;;;;;;2.33;0.57;;;;;;;8.77;85.94;98431.56;5036665;28;20033;-72
2022/02/21 03:00:24;;;;;;;2.03;0.47;;;;;;;8.78;85.59;98415.25;5040706;28;20021;-72
2022/02/21 03:02:49;;;;;;;0.80;0.50;;;;;;;8.80;85.24;98423.00;5040427;28;20063;-72
2022/02/21 03:05:15;;;;;;;1.02;0.60;;;;;;;8.82;85.57;98433.41;5038549;28;20032;-72
2022/02/21 03:07:40;;;;;;;0.88;0.40;;;;;;;8.83;84.72;98438.44;5039727;28;20394;-72
2022/02/21 03:10:06;;;;;;;0.50;0.40;;;;;;;8.87;84.57;98438.63;5038321;28;20033;-72
2022/02/21 03:12:31;;;;;;;1.40;0.55;;;;;;;8.90;84.16;98452.19;5039207;28;20041;-72
2022/02/21 03:14:57;;;;;;;2.03;0.45;;;;;;;8.93;83.60;98440.13;5041355;28;20115;-72
2022/02/21 03:17:24;;;;;;;1.67;0.70;;;;;;;8.98;83.10;98450.75;5037557;28;20226;-72
2022/02/21 03:19:50;;;;;;;2.35;0.50;;;;;;;9.02;82.70;98446.41;5035886;28;20108;-72
2022/02/21 03:22:15;;;;;;;1.75;0.50;;;;;;;9.06;82.46;98448.19;5033904;28;20108;-72
2022/02/21 03:24:41;;;;;;;3.38;0.70;;;;;;;9.07;81.65;98432.94;5037169;28;20486;-72
2022/02/21 03:27:06;;;;;;;0.45;0.20;;;;;;;9.11;81.49;98444.63;5037401;28;20565;-72
2022/02/21 03:29:32;;;;;;;1.27;0.30;;;;;;;9.13;80.97;98471.81;5037762;28;20022;-72
2022/02/21 03:31:57;;;;;;;0.60;0.35;;;;;;;9.14;80.69;98456.59;5035070;28;20125;-72
2022/02/21 03:34:23;;;;;;;1.23;0.38;;;;;;;9.16;80.27;98476.63;5037265;28;20116;-72
2022/02/21 03:36:49;;;;;;;1.95;0.45;;;;;;;9.16;80.18;98483.84;5035903;28;20656;-72
2022/02/21 03:39:14;;;;;;;0.22;0.22;;;;;;;9.19;80.07;98488.59;5037408;28;20021;-72
2022/02/21 03:41:40;;;;;;;1.10;0.30;;;;;;;9.15;79.56;98501.72;5039057;28;20029;-72
2022/02/21 03:44:06;;;;;;;0.40;0.40;;;;;;;9.14;80.13;98510.81;5033162;28;20112;-73
2022/02/21 03:46:32;;;;;;;1.65;0.40;;;;;;;9.09;80.27;98526.94;5036944;28;20108;-72
2022/02/21 03:48:58;;;;;;;0.65;0.38;;;;;;;9.01;80.76;98531.06;5038024;28;20035;-72
2022/02/21 03:51:23;;;;;;;2.33;0.30;;;;;;;8.92;81.65;98540.03;5037066;28;20479;-72
2022/02/21 03:53:49;;;;;;;1.27;0.43;;;;;;;8.78;82.81;98546.09;5036379;28;20053;-72
2022/02/21 03:56:14;;;;;;;0.32;0.20;;;;;;;8.69;82.96;98565.72;5038976;28;20107;-72
2022/02/21 03:58:43;;;;;;;0.20;0.20;;;;;;;8.53;83.03;98567.81;5037897;28;20060;-72
2022/02/21 04:01:09;;;;;;;0.30;0.30;;;;;;;8.48;83.23;98586.56;5034615;28;20510;-72
2022/02/21 04:03:34;;;;;;;0.35;0.20;;;;;;;8.39;82.70;98604.28;5040822;28;20471;-72
2022/02/21 04:06:00;;;;;;;0.20;0.20;;;;;;;8.31;83.54;98607.56;5037889;28;20083;-72
2022/02/21 04:08:25;;;;;;;0.35;0.20;;;;;;;8.31;83.80;98603.03;5043824;28;20123;-72
2022/02/21 04:10:51;;;;;;;0.85;0.40;;;;;;;8.28;84.13;98606.28;5044393;28;20067;-72
2022/02/21 04:13:17;;;;;;;0.20;0.20;;;;;;;8.22;84.44;98610.06;5042931;28;20044;-72
2022/02/21 04:15:42;;;;;;;0.60;0.35;;;;;;;8.16;84.71;98628.00;5042713;28;20040;-73
2022/02/21 04:18:13;;;;;;;0.20;0.20;;;;;;;8.14;84.80;98634.69;5047453;28;20075;-72
2022/02/21 04:20:39;;;;;;;0.50;0.30;;;;;;;8.05;84.82;98625.72;5044691;28;20508;-72
2022/02/21 04:23:04;;;;;;;1.75;0.30;;;;;;;7.99;84.11;98613.50;5046423;28;20029;-72
2022/02/21 04:25:30;;;;;;;0.20;0.20;;;;;;;7.93;83.44;98601.31;5044532;28;20112;-72
2022/02/21 04:27:56;;;;;;;0.20;0.20;;;;;;;7.89;83.14;98622.41;5045454;28;20144;-72
2022/02/21 04:30:24;;;;;;;0.20;0.20;;;;;;;7.86;82.50;98622.97;5043733;28;20499;-72
2022/02/21 04:32:50;;;;;;;0.43;0.20;;;;;;;7.81;81.88;98623.03;5043184;28;20506;-72
2022/02/21 04:35:17;;;;;;;0.20;0.20;;;;;;;7.77;81.86;98635.34;5041889;28;20029;-72
2022/02/21 04:37:43;;;;;;;0.20;0.20;;;;;;;7.75;81.46;98646.28;5041742;28;20030;-72
2022/02/21 04:40:13;;;;;;;0.85;0.30;;;;;;;7.74;81.18;98649.22;5047258;28;20491;-72
2022/02/21 04:42:38;;;;;;;2.17;0.43;;;;;;;7.72;81.10;98649.50;5045158;28;20040;-72
2022/02/21 04:45:06;;;;;;;0.20;0.20;;;;;;;7.74;80.44;98671.34;5043962;28;20025;-72
2022/02/21 04:47:32;;;;;;;0.20;0.20;;;;;;;7.76;80.30;98660.41;5044319;28;20025;-72
2022/02/21 04:49:57;;;;;;;0.20;0.20;;;;;;;7.68;79.61;98645.78;5047001;28;20032;-72
2022/02/21 04:52:23;;;;;;;0.30;0.30;;;;;;;7.64;79.11;98663.41;5042476;28;20106;-72
2022/02/21 04:54:49;;;;;;;7.55;0.68;;;;;;;7.57;77.43;98677.06;5045781;28;20040;-72
2022/02/21 04:57:14;;;;;;;0.20;0.20;;;;;;;7.53;75.89;98648.56;5043569;28;20495;-72
2022/02/21 04:59:40;;;;;;;0.57;0.22;;;;;;;7.45;74.91;98684.63;5044989;28;20024;-72
2022/02/21 05:02:06;;;;;;;0.63;0.30;;;;;;;7.35;74.51;98674.03;5040402;28;20036;-72
2022/02/21 05:04:31;;;;;;;0.60;0.20;;;;;;;7.31;74.44;98698.84;5041115;28;20025;-72
2022/02/21 05:06:57;;;;;;;0.10;0.10;;;;;;;7.28;74.14;98665.56;5045534;28;20028;-72
2022/02/21 05:09:22;;;;;;;0.43;0.13;;;;;;;7.21;73.52;98692.50;5045449;28;20122;-72
2022/02/21 05:11:48;;;;;;;0.47;0.20;;;;;;;7.20;74.08;98700.78;5046179;28;20063;-72
2022/02/21 05:14:13;;;;;;;1.80;0.30;;;;;;;7.14;73.97;98707.97;5042588;28;20381;-72
2022/02/21 05:16:39;;;;;;;1.52;0.20;;;;;;;7.10;74.23;98711.47;5043904;28;20109;-72
2022/02/21 05:19:04;;;;;;;2.63;0.20;;;;;;;7.07;73.95;98702.19;5037118;28;20106;-72
2022/02/21 05:21:31;;;;;;;0.75;0.30;;;;;;;7.05;74.05;98725.63;5039944;28;20032;-72
2022/02/21 05:23:56;;;;;;;0.20;0.20;;;;;;;7.06;74.57;98727.22;5038999;28;20104;-72
2022/02/21 05:26:23;;;;;;;0.45;0.20;;;;;;;7.02;74.47;98726.19;5041575;28;20890;-72
2022/02/21 05:28:49;;;;;;;0.20;0.20;;;;;;;6.99;74.42;98726.69;5043419;28;20025;-72
2022/02/21 05:31:14;;;;;;;0.15;0.10;;;;;;;6.96;74.39;98743.22;5036809;28;20028;-72
2022/02/21 05:33:40;;;;;;;0.30;0.28;;;;;;;6.88;74.44;98747.25;5040706;28;20052;-72
2022/02/21 05:36:06;;;;;;;1.23;0.30;;;;;;;6.85;74.37;98758.47;5040440;28;20041;-72
2022/02/21 05:38:31;;;;;;;1.17;0.30;;;;;;;6.83;74.27;98763.25;5037789;28;20070;-72
2022/02/21 05:40:57;;;;;;;0.75;0.30;;;;;;;6.79;73.92;98753.41;5038212;28;20030;-72
2022/02/21 05:43:22;;;;;;;0.98;0.20;;;;;;;6.74;74.28;98742.78;5042436;28;20552;-72
2022/02/21 05:45:47;;;;;;;3.63;0.30;;;;;;;6.73;74.44;98736.66;5041156;28;20032;-72
2022/02/21 05:48:13;;;;;;;2.92;0.45;;;;;;;6.75;74.46;98761.13;5046043;28;20556;-72
2022/02/21 05:50:39;;;;;;;0.63;0.20;;;;;;;6.74;74.22;98743.56;5035933;28;20030;-73
2022/02/21 05:53:04;;;;;;;2.20;0.30;;;;;;;6.71;73.74;98764.63;5042829;28;20056;-72
2022/02/21 05:55:29;;;;;;;0.80;0.30;;;;;;;6.68;74.04;98787.25;5036112;28;20114;-72
2022/02/21 05:57:59;;;;;;;3.60;0.35;;;;;;;6.59;73.70;98810.94;5038905;28;20501;-72
2022/02/21 06:00:26;;;;;;;1.08;0.93;;;;;;;6.56;73.57;98819.47;5039814;28;20120;-72
2022/02/21 06:02:52;;;;;;;0.70;0.40;;;;;;;6.54;73.58;98826.91;5038838;28;20033;-71
2022/02/21 06:05:17;;;;;;;1.58;0.55;;;;;;;6.55;73.32;98823.19;5035690;28;20048;-72
2022/02/21 06:07:43;;;;;;;3.78;0.50;;;;;;;6.55;73.32;98828.50;5037537;28;20025;-72
2022/02/21 06:10:09;;;;;;;1.05;0.50;;;;;;;6.51;73.04;98822.13;5036004;28;20078;-71
2022/02/21 06:12:34;;;;;;;0.50;0.40;;;;;;;6.53;73.45;98824.53;5042812;28;20025;-73
2022/02/21 06:15:00;;;;;;;3.22;0.68;;;;;;;6.46;73.07;98814.13;5040329;28;20039;-72
2022/02/21 06:17:25;;;;;;;2.70;0.77;;;;;;;6.46;73.75;98829.31;5039063;28;20033;-72
2022/02/21 06:19:51;;;;;;;2.88;1.05;;;;;;;6.41;73.57;98826.66;5039810;28;20509;-72
2022/02/21 06:22:20;;;;;;;3.03;0.50;;;;;;;6.36;73.62;98841.56;5035745;28;20040;-72
2022/02/21 06:24:45;;;;;;;1.98;0.50;;;;;;;6.34;73.74;98841.03;5038013;28;20036;-71
2022/02/21 06:27:11;;;;;;;1.88;0.60;;;;;;;6.32;73.70;98845.03;5034738;28;20030;-72
2022/02/21 06:29:36;;;;;;;4.45;0.90;;;;;;;6.35;74.20;98866.56;5040575;28;20050;-72
2022/02/21 06:32:03;;;;;;;9.13;1.05;;;;;;;6.33;73.49;98870.56;5037683;28;20027;-72
2022/02/21 06:34:29;;;;;;;6.93;0.75;;;;;;;6.23;73.98;98881.97;5039982;28;20031;-72
2022/02/21 06:36:55;;;;;;;5.60;0.80;;;;;;;6.05;74.43;98879.81;5042893;28;20033;-72
2022/02/21 06:39:21;;;;;;;3.33;0.50;;;;;;;5.93;75.47;98898.69;5039885;28;20103;-72
2022/02/21 06:41:50;;;;;;;2.75;0.63;;;;;;;5.83;76.13;98893.31;5038866;28;20117;-72
2022/02/21 06:44:15;;;;;;;2.08;0.60;;;;;;;5.82;76.63;98905.00;5042297;28;20034;-72
2022/02/21 06:46:42;;;;;;;3.05;1.02;;;;;;;5.80;76.92;98912.44;5037103;28;20679;-72
2022/02/21 06:49:08;;;;;;;4.88;0.77;;;;;;;5.84;77.32;98924.16;5042910;28;20025;-72
2022/02/21 06:51:36;;;;;;;6.57;1.45;;;;;;;5.78;77.68;98935.03;5044335;28;20024;-71
2022/02/21 06:54:07;;;;;;;1.95;0.70;;;;;;;5.67;78.65;98929.66;5036375;28;20025;-72
2022/02/21 06:56:33;;;;;;;2.20;0.60;;;;;;;5.69;79.29;98961.28;5040392;28;20024;-71
2022/02/21 06:58:58;;;;;;;4.28;0.70;;;;;;;5.70;79.00;98971.66;5035969;28;20421;-71
2022/02/21 07:01:24;;;;;;;6.07;0.80;;;;;;;5.68;79.22;98971.13;5040097;28;20028;-72
2022/02/21 07:03:50;;;;;;;3.75;0.70;;;;;;;5.65;78.87;98987.59;5036755;28;20025;-72
2022/02/21 07:06:16;;;;;;;3.75;0.80;;;;;;;5.55;79.17;98995.50;5034943;28;20052;-72
2022/02/21 07:08:42;;;;;;;4.03;1.23;;;;;;;5.48;79.91;98997.59;5037309;28;20491;-73
2022/02/21 07:11:08;;;;;;;6.30;1.05;;;;;;;5.44;79.84;98993.84;5040313;28;20438;-72
2022/02/21 07:13:37;;;;;;;6.40;1.10;;;;;;;5.41;79.75;98995.16;5039414;28;20146;-72
2022/02/21 07:16:03;;;;;;;2.20;0.90;;;;;;;5.46;79.49;98997.03;5039680;28;20410;-72
2022/02/21 07:18:29;;;;;;;4.38;0.95;;;;;;;5.54;79.49;99006.38;5038614;28;20029;-71
2022/02/21 07:20:54;;;;;;;5.45;1.33;;;;;;;5.60;79.03;99011.47;5037718;28;20035;-71
2022/02/21 07:23:20;;;;;;;2.63;0.85;;;;;;;5.66;78.81;99020.28;5036669;28;20029;-71
2022/02/21 07:25:45;;;;;;;5.35;1.77;;;;;;;5.65;79.01;99022.13;5037180;28;20055;-72
2022/02/21 07:28:12;;;;;;;3.50;1.25;;;;;;;5.69;78.14;99036.50;5030762;28;20108;-71
2022/02/21 07:30:37;;;;;;;5.53;0.98;;;;;;;5.66;77.75;99025.59;5036686;28;20109;-71
2022/02/21 07:33:03;;;;;;;6.63;1.17;;;;;;;5.64;77.57;99030.34;5031840;28;20060;-72
2022/02/21 07:35:29;;;;;;;7.35;1.13;;;;;;;5.67;77.24;99046.56;5034391;28;20025;-72
2022/02/21 07:37:54;;;;;;;9.65;1.73;;;;;;;5.67;77.34;99061.72;5037281;28;20064;-72
2022/02/21 07:40:20;;;;;;;4.55;1.58;;;;;;;5.57;76.50;99057.16;5031360;28;20025;-72
2022/02/21 07:42:52;;;;;;;10.40;1.20;;;;;;;5.56;76.28;99068.00;5031904;28;20033;-72
2022/02/21 07:45:19;;;;;;;10.88;1.48;;;;;;;5.62;76.30;99075.78;5032445;28;20025;-72
2022/02/21 07:47:51;;;;;;;13.18;1.80;;;;;;;5.53;75.49;99074.66;5032604;28;20029;-71
2022/02/21 07:50:18;;;;;;;7.28;1.00;;;;;;;5.60;75.86;99079.75;5031632;28;20022;-71
2022/02/21 07:52:44;;;;;;;7.00;1.48;;;;;;;5.62;75.05;99078.44;5034154;28;20018;-71
2022/02/21 07:55:12;;;;;;;7.93;1.77;;;;;;;5.62;74.67;99078.44;5031064;28;20032;-71
2022/02/21 07:57:41;;;;;;;8.75;1.55;;;;;;;5.62;74.77;99081.09;5032916;28;20049;-71
2022/02/21 08:00:10;;;;;;;4.75;1.25;;;;;;;5.59;73.82;99089.59;5035600;28;20438;-71
2022/02/21 08:02:36;;;;;;;10.20;1.70;;;;;;;5.61;72.96;99094.63;5032935;28;20037;-71
2022/02/21 08:05:03;;;;;;;9.75;1.80;;;;;;;5.57;73.04;99104.97;5032324;28;20207;-72
2022/02/21 08:07:29;;;;;;;8.38;1.70;;;;;;;5.59;73.54;99107.38;5032669;28;20029;-71
2022/02/21 08:09:54;;;;;;;5.20;1.50;;;;;;;5.59;73.55;99107.38;5033313;28;20371;-71
2022/02/21 08:12:19;;;;;;;4.18;1.33;;;;;;;5.58;72.91;99108.44;5031935;28;20565;-73
2022/02/21 08:14:45;;;;;;;6.47;1.45;;;;;;;5.61;72.28;99111.38;5031938;28;20021;-73
2022/02/21 08:17:10;;;;;;;6.20;1.67;;;;;;;5.60;71.53;99117.75;5031285;28;20049;-73
2022/02/21 08:19:36;;;;;;;7.95;1.30;;;;;;;5.65;71.89;99106.34;5031753;28;20047;-73
2022/02/21 08:22:02;;;;;;;7.70;1.55;;;;;;;5.68;71.62;99122.56;5032194;28;20135;-73
2022/02/21 08:24:27;;;;;;;4.43;1.20;;;;;;;5.66;71.39;99129.22;5031808;28;20070;-73
2022/02/21 08:26:52;;;;;;;7.85;1.40;;;;;;;5.69;71.64;99132.16;5031762;28;20025;-73
2022/02/21 08:29:18;;;;;;;3.40;1.00;;;;;;;5.67;70.82;99136.13;5031882;28;20112;-73
2022/02/21 08:31:45;;;;;;;9.50;1.38;;;;;;;5.68;70.98;99137.72;5032897;28;20113;-73
2022/02/21 08:34:11;;;;;;;7.60;1.38;;;;;;;5.65;70.65;99131.06;5030732;28;20056;-73
2022/02/21 08:36:37;;;;;;;5.80;1.30;;;;;;;5.69;70.92;99124.19;5034806;28;20028;-73
2022/02/21 08:39:03;;;;;;;7.90;1.83;;;;;;;5.73;70.88;99138.53;5031977;28;20045;-73
2022/02/21 08:41:29;;;;;;;5.07;1.27;;;;;;;5.76;70.45;99129.28;5031335;28;20075;-73
2022/02/21 08:43:54;;;;;;;6.40;1.38;;;;;;;5.80;70.25;99150.84;5034082;28;20041;-73
2022/02/21 08:46:20;;;;;;;3.80;1.35;;;;;;;5.83;70.59;99143.16;5030900;28;20457;-73
2022/02/21 08:48:46;;;;;;;5.43;1.17;;;;;;;5.83;70.40;99150.31;5036828;28;20032;-73
2022/02/21 08:51:11;;;;;;;5.57;1.27;;;;;;;5.79;70.11;99158.00;5032644;28;20030;-72
2022/02/21 08:53:37;;;;;;;8.00;1.40;;;;;;;5.81;70.49;99155.88;5036540;28;20032;-73
2022/02/21 08:56:04;;;;;;;6.05;1.23;;;;;;;5.83;69.85;99147.66;5036811;28;20509;-73
2022/02/21 08:58:29;;;;;;;2.40;1.00;;;;;;;5.79;70.08;99150.03;5027746;28;20029;-73
2022/02/21 09:00:55;;;;;;;4.28;1.02;;;;;;;5.80;70.00;99154.28;5035125;28;20037;-73
2022/02/21 09:03:26;;;;;;;5.97;1.67;;;;;;;5.80;69.65;99162.25;5038950;28;20029;-74
2022/02/21 09:05:52;;;;;;;8.30;1.58;;;;;;;5.82;69.45;99160.16;5035743;28;20105;-73
2022/02/21 09:08:18;;;;;;;6.10;1.35;;;;;;;5.86;69.52;99147.16;5036947;28;20314;-73
2022/02/21 09:10:45;;;;;;;9.80;1.35;;;;;;;5.85;68.67;99142.88;5038173;28;20049;-73
2022/02/21 09:13:10;;;;;;;6.60;1.27;;;;;;;5.93;68.68;99150.44;5038810;28;20037;-73
2022/02/21 09:15:36;;;;;;;9.00;1.48;;;;;;;5.97;68.03;99154.16;5035882;28;20057;-73
2022/02/21 09:18:04;;;;;;;8.40;1.60;;;;;;;6.05;68.20;99145.69;5039251;28;20051;-73
2022/02/21 09:20:30;;;;;;;5.22;1.20;;;;;;;6.14;67.99;99146.03;5036027;28;20044;-73
2022/02/21 09:22:55;;;;;;;8.43;1.60;;;;;;;6.25;67.64;99151.13;5047877;28;20590;-73
2022/02/21 09:25:21;;;;;;;6.18;1.77;;;;;;;6.39;67.54;99158.66;5037411;28;20430;-73
2022/02/21 09:27:47;;;;;;;4.90;1.70;;;;;;;6.49;67.12;99156.03;5035281;28;20025;-73
2022/02/21 09:30:13;;;;;;;7.65;1.23;;;;;;;6.58;66.77;99157.94;5036752;28;20036;-73
2022/02/21 09:32:39;;;;;;;9.05;2.05;;;;;;;6.65;66.21;99155.03;5038887;28;20032;-73
2022/02/21 09:35:06;;;;;;;6.38;1.50;;;;;;;6.76;66.15;99159.31;5037509;28;20024;-73
2022/02/21 09:37:32;;;;;;;6.07;1.25;;;;;;;6.89;65.83;99169.47;5037784;28;20075;-73
2022/02/21 09:39:58;;;;;;;5.93;1.10;;;;;;;6.98;65.68;99167.09;5035604;28;20463;-73
2022/02/21 09:42:24;;;;;;;4.53;1.27;;;;;;;7.07;65.52;99181.50;5040145;28;20056;-73
2022/02/21 09:44:50;;;;;;;3.38;0.80;;;;;;;7.19;65.78;99192.75;5036374;28;20053;-73
2022/02/21 09:47:17;;;;;;;4.88;1.02;;;;;;;7.18;65.45;99177.81;5039268;28;20064;-73
2022/02/21 09:49:43;;;;;;;3.08;1.20;;;;;;;7.15;65.00;99191.63;5036017;28;20029;-73
2022/02/21 09:52:09;;;;;;;2.53;1.15;;;;;;;7.17;64.46;99180.72;5038650;28;20024;-73
2022/02/21 09:54:34;;;;;;;3.00;1.10;;;;;;;7.20;64.52;99188.22;5035652;28;20054;-73
2022/02/21 09:57:00;;;;;;;7.93;1.73;;;;;;;7.27;64.53;99196.72;5037044;28;20112;-73
2022/02/21 09:59:25;;;;;;;3.15;1.10;;;;;;;7.27;64.07;99196.72;5035069;28;20031;-73
2022/02/21 10:01:51;;;;;;;7.20;1.20;;;;;;;7.21;64.32;99197.78;5034467;28;20403;-73
2022/02/21 10:04:24;;;;;;;4.88;1.10;;;;;;;7.24;63.79;99199.94;5032849;28;20037;-73
2022/02/21 10:06:51;;;;;;;4.40;1.13;;;;;;;7.30;64.28;99200.72;5035713;28;20108;-73
2022/02/21 10:09:17;;;;;;;7.68;1.48;;;;;;;7.32;63.21;99210.06;5034959;28;20041;-73
2022/02/21 10:11:45;;;;;;;8.30;1.13;;;;;;;7.25;63.07;99222.84;5036478;28;20029;-73
2022/02/21 10:14:23;;;;;;;6.43;1.58;;;;;;;7.18;63.60;99230.25;5033295;28;20032;-73
2022/02/21 10:16:53;;;;;;;5.30;1.33;;;;;;;7.12;63.78;99233.97;5035755;28;20041;-73
2022/02/21 10:19:20;;;;;;;4.90;1.05;;;;;;;7.06;63.70;99233.19;5035220;28;20063;-73
2022/02/21 10:22:04;;;;;;;7.07;1.15;;;;;;;7.07;63.39;99239.31;5033483;28;20029;-73
2022/02/21 10:24:39;;;;;;;8.30;1.27;;;;;;;7.18;63.59;99228.44;5028883;28;20021;-73
2022/02/21 10:27:16;;;;;;;6.25;1.48;;;;;;;7.21;62.55;99245.75;5032525;28;20516;-73
2022/02/21 10:29:52;;;;;;;4.72;1.33;;;;;;;7.27;62.92;99247.34;5034105;28;20037;-73
2022/02/21 10:32:23;;;;;;;7.00;1.40;;;;;;;7.19;61.53;99243.34;5035511;28;20068;-73
2022/02/21 10:34:49;;;;;;;10.18;1.58;;;;;;;7.16;62.17;99238.50;5035279;28;20029;-73
2022/02/21 10:37:22;;;;;;;5.47;1.45;;;;;;;7.03;61.50;99230.25;5033222;28;20035;-73
2022/02/21 10:39:48;;;;;;;7.22;1.42;;;;;;;7.01;61.73;99240.34;5034002;28;20024;-73
2022/02/21 10:42:24;;;;;;;7.68;1.35;;;;;;;6.91;60.63;99249.91;5032735;28;20021;-73
2022/02/21 10:44:50;;;;;;;6.88;1.83;;;;;;;6.97;61.48;99248.03;5032677;28;20028;-73
2022/02/21 10:47:19;;;;;;;9.20;1.40;;;;;;;6.99;60.63;99243.25;5035232;28;20024;-73
2022/02/21 10:49:46;;;;;;;4.63;1.55;;;;;;;7.03;60.71;99239.03;5033010;28;20486;-73
2022/02/21 10:52:26;;;;;;;11.73;1.90;;;;;;;7.04;59.60;99250.47;5033593;28;20093;-73
2022/02/21 10:54:52;;;;;;;9.98;1.40;;;;;;;7.04;60.10;99245.97;5036698;28;20112;-73
2022/02/21 10:57:19;;;;;;;4.75;1.27;;;;;;;7.03;59.45;99241.69;5035123;28;20024;-73
2022/02/21 10:59:45;;;;;;;8.55;1.88;;;;;;;7.04;59.91;99248.63;5033730;28;20025;-73
2022/02/21 11:02:14;;;;;;;7.88;1.15;;;;;;;7.09;59.68;99261.94;5033359;28;20116;-73
2022/02/21 11:04:42;;;;;;;6.80;2.13;;;;;;;7.12;59.50;99260.63;5034875;28;20467;-73
2022/02/21 11:07:08;;;;;;;5.53;1.60;;;;;;;7.15;59.80;99260.09;5041431;28;20028;-73
2022/02/21 11:09:37;;;;;;;5.88;1.50;;;;;;;7.16;59.35;99275.81;5034574;28;20920;-73
2022/02/21 11:12:04;;;;;;;4.75;1.27;;;;;;;7.11;59.24;99269.66;5034627;28;20039;-73
2022/02/21 11:14:31;;;;;;;4.38;1.08;;;;;;;7.01;58.85;99280.31;5035132;28;20029;-73
2022/02/21 11:16:59;;;;;;;6.00;1.70;;;;;;;6.97;59.54;99283.47;5034025;28;20064;-73
2022/02/21 11:19:25;;;;;;;4.82;1.30;;;;;;;6.93;59.08;99284.25;5033619;28;20036;-73
2022/02/21 11:21:51;;;;;;;6.00;1.40;;;;;;;6.87;58.97;99287.97;5038335;28;20035;-73
2022/02/21 11:24:30;;;;;;;5.18;1.63;;;;;;;6.86;57.95;99283.69;5032810;28;20020;-73
2022/02/21 11:27:05;;;;;;;8.10;1.40;;;;;;;6.92;58.82;99280.78;5032046;28;20030;-73
2022/02/21 11:29:42;;;;;;;5.63;1.33;;;;;;;6.97;59.36;99277.34;5033016;28;20072;-74
2022/02/21 11:32:15;;;;;;;7.07;1.30;;;;;;;6.97;59.08;99283.47;5033732;28;20061;-73
2022/02/21 11:34:46;;;;;;;6.10;1.40;;;;;;;7.10;58.86;99282.19;5032652;28;20032;-73
2022/02/21 11:37:25;;;;;;;8.07;1.40;;;;;;;7.23;58.27;99286.25;5031570;28;20138;-73
2022/02/21 11:40:01;;;;;;;6.38;1.88;;;;;;;7.45;57.26;99294.03;5035164;28;20633;-73